createdAt,value
2022-12-11T00:01:15.040Z,17.37
2022-12-11T00:03:42.163Z,17.39
2022-12-11T00:06:11.112Z,17.34
2022-12-11T00:08:38.251Z,17.29
2022-12-11T00:11:05.641Z,17.28
2022-12-11T00:13:34.623Z,17.26
2022-12-11T00:16:01.857Z,17.22
2022-12-11T00:18:28.813Z,17.28
2022-12-11T00:20:55.833Z,17.26
2022-12-11T00:23:22.853Z,17.29
2022-12-11T00:25:49.978Z,17.23
2022-12-11T00:28:20.604Z,17.20
2022-12-11T00:30:49.033Z,17.18
2022-12-11T00:33:16.512Z,17.25
2022-12-11T00:35:46.487Z,17.23
2022-12-11T00:38:15.261Z,17.21
2022-12-11T00:40:42.866Z,17.24
2022-12-11T00:43:10.098Z,17.21
2022-12-11T00:45:37.365Z,17.26
2022-12-11T00:48:06.996Z,17.26
2022-12-11T00:50:34.044Z,17.30
2022-12-11T00:53:01.105Z,17.29
2022-12-11T00:55:29.268Z,17.28
2022-12-11T00:57:58.346Z,17.31
2022-12-11T01:00:25.473Z,17.27
2022-12-11T01:02:52.460Z,17.30
2022-12-11T01:05:21.831Z,17.35
2022-12-11T01:07:48.988Z,17.36
2022-12-11T01:10:25.478Z,17.41
2022-12-11T01:12:53.559Z,17.46
2022-12-11T01:15:22.974Z,17.48
2022-12-11T01:17:50.666Z,17.47
2022-12-11T01:20:17.867Z,17.40
2022-12-11T01:22:46.247Z,17.43
2022-12-11T01:25:13.372Z,17.47
2022-12-11T01:27:40.340Z,17.45
2022-12-11T01:30:09.109Z,17.47
2022-12-11T01:32:36.518Z,17.45
2022-12-11T01:35:04.458Z,17.48
2022-12-11T01:37:31.549Z,17.57
2022-12-11T01:40:01.942Z,17.63
2022-12-11T01:42:29.703Z,17.61
2022-12-11T01:45:32.101Z,17.67
2022-12-11T01:48:05.549Z,17.74
2022-12-11T01:50:36.918Z,17.72
2022-12-11T01:53:06.503Z,17.73
2022-12-11T01:55:35.580Z,17.77
2022-12-11T01:58:03.013Z,17.78
2022-12-11T02:00:30.041Z,17.77
2022-12-11T02:02:57.345Z,17.79
2022-12-11T02:05:24.345Z,17.88
2022-12-11T02:07:55.615Z,17.90
2022-12-11T02:10:28.540Z,17.92
2022-12-11T02:13:03.381Z,17.92
2022-12-11T02:15:35.818Z,17.93
2022-12-11T02:18:16.712Z,17.96
2022-12-11T02:20:51.879Z,17.95
2022-12-11T02:23:35.554Z,18.02
2022-12-11T02:26:13.407Z,18.03
2022-12-11T02:28:45.673Z,18.02
2022-12-11T02:31:17.156Z,18.05
2022-12-11T02:33:56.855Z,18.10
2022-12-11T02:36:26.288Z,18.11
2022-12-11T02:38:56.643Z,18.14
2022-12-11T02:41:24.930Z,18.24
2022-12-11T02:43:55.366Z,18.24
2022-12-11T02:46:23.113Z,18.22
2022-12-11T02:48:52.028Z,18.21
2022-12-11T02:51:28.216Z,18.15
2022-12-11T02:53:58.275Z,18.19
2022-12-11T02:56:29.691Z,18.26
2022-12-11T02:59:01.317Z,18.29
2022-12-11T03:01:28.555Z,18.32
2022-12-11T03:03:56.498Z,18.32
2022-12-11T03:06:28.522Z,18.36
2022-12-11T03:08:58.065Z,18.38
2022-12-11T03:11:25.334Z,18.39
2022-12-11T03:13:52.824Z,18.33
2022-12-11T03:16:29.975Z,18.34
2022-12-11T03:19:06.365Z,18.41
2022-12-11T03:21:36.465Z,18.44
2022-12-11T03:24:07.993Z,18.49
2022-12-11T03:26:40.622Z,18.44
2022-12-11T03:29:16.073Z,18.43
2022-12-11T03:31:47.370Z,18.45
2022-12-11T03:34:19.284Z,18.49
2022-12-11T03:36:48.630Z,18.44
2022-12-11T03:39:19.181Z,18.45
2022-12-11T03:41:48.618Z,18.46
2022-12-11T03:44:16.260Z,18.42
2022-12-11T03:46:46.918Z,18.42
2022-12-11T03:49:18.598Z,18.40
2022-12-11T03:51:48.615Z,18.52
2022-12-11T03:54:17.130Z,18.49
2022-12-11T03:56:46.905Z,18.45
2022-12-11T03:59:14.123Z,18.42
2022-12-11T04:01:41.089Z,18.45
2022-12-11T04:04:09.732Z,18.47
2022-12-11T04:06:36.744Z,18.47
2022-12-11T04:09:03.894Z,18.49
2022-12-11T04:11:37.007Z,18.52
2022-12-11T04:14:24.332Z,18.57
2022-12-11T04:16:51.609Z,18.56
2022-12-11T04:19:39.714Z,18.53
2022-12-11T04:22:25.682Z,18.50
2022-12-11T04:24:52.885Z,18.43
2022-12-11T04:27:38.613Z,18.52
2022-12-11T04:30:08.009Z,18.51
2022-12-11T04:32:34.944Z,18.54
2022-12-11T04:35:04.015Z,18.57
2022-12-11T04:37:30.953Z,18.54
2022-12-11T04:39:57.894Z,18.53
2022-12-11T04:42:24.854Z,18.52
2022-12-11T04:44:51.933Z,18.55
2022-12-11T04:47:19.049Z,18.51
2022-12-11T04:49:46.290Z,18.54
2022-12-11T04:52:14.770Z,18.57
2022-12-11T04:54:41.779Z,18.60
2022-12-11T04:57:08.786Z,18.60
2022-12-11T04:59:37.231Z,18.55
2022-12-11T05:02:05.065Z,18.48
2022-12-11T05:04:33.257Z,18.45
2022-12-11T05:07:00.418Z,18.39
2022-12-11T05:09:28.878Z,18.37
2022-12-11T05:11:56.051Z,18.39
2022-12-11T05:14:23.105Z,18.44
2022-12-11T05:16:50.044Z,18.44
2022-12-11T05:19:17.493Z,18.51
2022-12-11T05:21:44.534Z,18.51
2022-12-11T05:24:11.618Z,18.48
2022-12-11T05:26:40.121Z,18.51
2022-12-11T05:29:07.165Z,18.47
2022-12-11T05:31:34.167Z,18.47
2022-12-11T05:34:01.432Z,18.49
2022-12-11T05:36:31.045Z,18.42
2022-12-11T05:38:59.851Z,18.45
2022-12-11T05:41:28.907Z,18.49
2022-12-11T05:43:57.545Z,18.46
2022-12-11T05:46:26.600Z,18.42
2022-12-11T05:48:55.432Z,18.36
2022-12-11T05:51:23.005Z,18.40
2022-12-11T05:53:51.825Z,18.41
2022-12-11T05:56:21.497Z,18.48
2022-12-11T05:58:49.677Z,18.43
2022-12-11T06:01:20.771Z,18.44
2022-12-11T06:03:48.101Z,18.45
2022-12-11T06:06:15.278Z,18.47
2022-12-11T06:08:42.502Z,18.43
2022-12-11T06:11:09.601Z,18.41
2022-12-11T06:13:36.935Z,18.41
2022-12-11T06:16:06.154Z,18.41
2022-12-11T06:18:37.874Z,18.39
2022-12-11T06:21:13.476Z,18.44
2022-12-11T06:23:41.800Z,18.46
2022-12-11T06:26:08.973Z,18.47
2022-12-11T06:28:36.333Z,18.49
2022-12-11T06:31:04.099Z,18.47
2022-12-11T06:33:31.174Z,18.47
2022-12-11T06:36:04.181Z,18.46
2022-12-11T06:38:31.235Z,18.48
2022-12-11T06:40:59.816Z,18.47
2022-12-11T06:43:26.935Z,18.47
2022-12-11T06:45:56.884Z,18.43
2022-12-11T06:48:28.598Z,18.38
2022-12-11T06:50:55.546Z,18.34
2022-12-11T06:53:24.028Z,18.34
2022-12-11T06:55:50.983Z,18.30
2022-12-11T06:58:21.040Z,18.30
2022-12-11T07:00:48.717Z,18.24
2022-12-11T07:03:15.739Z,18.26
2022-12-11T07:05:42.725Z,18.25
2022-12-11T07:08:09.947Z,18.22
2022-12-11T07:10:38.602Z,18.09
2022-12-11T07:13:05.914Z,18.02
2022-12-11T07:15:35.308Z,18.03
2022-12-11T07:18:03.539Z,17.99
2022-12-11T07:20:30.465Z,17.90
2022-12-11T07:22:57.414Z,17.87
2022-12-11T07:25:24.337Z,17.88
2022-12-11T07:27:52.710Z,18.02
2022-12-11T07:30:19.711Z,18.39
2022-12-11T07:32:47.004Z,18.98
2022-12-11T07:35:14.236Z,19.41
2022-12-11T07:37:41.723Z,19.44
2022-12-11T07:40:10.119Z,19.43
2022-12-11T07:42:41.413Z,19.86
2022-12-11T07:45:13.353Z,20.44
2022-12-11T07:47:40.521Z,20.94
2022-12-11T07:50:07.953Z,20.92
2022-12-11T07:52:35.059Z,20.66
2022-12-11T07:55:02.042Z,20.44
2022-12-11T07:57:29.517Z,20.24
2022-12-11T07:59:56.577Z,20.08
2022-12-11T08:02:24.954Z,19.93
2022-12-11T08:04:52.029Z,19.84
2022-12-11T08:07:19.042Z,19.78
2022-12-11T08:09:45.961Z,19.68
2022-12-11T08:12:13.357Z,19.66
2022-12-11T08:14:40.334Z,19.59
2022-12-11T08:17:07.521Z,19.55
2022-12-11T08:19:37.915Z,19.50
2022-12-11T08:22:04.857Z,19.46
2022-12-11T08:24:31.836Z,19.40
2022-12-11T08:26:58.833Z,19.38
2022-12-11T08:29:26.109Z,19.39
2022-12-11T08:31:53.030Z,19.58
2022-12-11T08:34:19.960Z,19.80
2022-12-11T08:36:48.485Z,20.08
2022-12-11T08:39:15.750Z,20.46
2022-12-11T08:41:42.730Z,20.80
2022-12-11T08:44:16.404Z,21.14
2022-12-11T08:46:44.141Z,21.44
2022-12-11T08:49:11.128Z,21.57
2022-12-11T08:51:38.894Z,21.65
2022-12-11T08:54:07.382Z,21.63
2022-12-11T08:56:34.336Z,21.74
2022-12-11T08:59:02.025Z,21.88
2022-12-11T09:01:29.465Z,22.16
2022-12-11T09:03:57.056Z,22.43
2022-12-11T09:06:26.326Z,22.68
2022-12-11T09:08:54.047Z,22.89
2022-12-11T09:11:24.332Z,23.14
2022-12-11T09:13:51.420Z,23.30
2022-12-11T09:16:20.475Z,23.46
2022-12-11T09:18:49.125Z,23.60
2022-12-11T09:21:18.433Z,23.67
2022-12-11T09:23:45.733Z,23.76
2022-12-11T09:26:15.835Z,23.81
2022-12-11T09:28:47.516Z,23.71
2022-12-11T09:31:17.641Z,23.68
2022-12-11T09:33:47.658Z,23.48
2022-12-11T09:36:14.670Z,23.15
2022-12-11T09:38:44.240Z,23.08
2022-12-11T09:41:39.802Z,23.12
2022-12-11T09:44:24.188Z,23.24
2022-12-11T09:46:51.911Z,23.34
2022-12-11T09:49:28.745Z,23.40
2022-12-11T09:52:07.085Z,23.24
2022-12-11T09:54:34.229Z,23.30
2022-12-11T09:57:11.726Z,23.57
2022-12-11T10:00:05.641Z,23.45
2022-12-11T10:02:46.904Z,23.26
2022-12-11T10:05:22.174Z,23.40
2022-12-11T10:07:56.720Z,23.72
2022-12-11T10:10:35.750Z,23.96
2022-12-11T10:13:13.021Z,23.96
2022-12-11T10:15:49.312Z,23.82
2022-12-11T10:18:22.998Z,23.74
2022-12-11T10:20:52.883Z,23.40
2022-12-11T10:23:21.821Z,23.15
2022-12-11T10:25:53.575Z,23.05
2022-12-11T10:28:21.183Z,23.05
2022-12-11T10:30:57.739Z,23.21
2022-12-11T10:33:32.006Z,23.11
2022-12-11T10:35:59.417Z,22.93
2022-12-11T10:38:29.672Z,22.80
2022-12-11T10:40:59.853Z,22.67
2022-12-11T10:43:34.661Z,22.61
2022-12-11T10:46:03.223Z,22.49
2022-12-11T10:48:30.558Z,22.36
2022-12-11T10:51:01.001Z,22.23
2022-12-11T10:53:29.146Z,22.13
2022-12-11T10:55:58.613Z,22.09
2022-12-11T10:58:28.486Z,21.96
2022-12-11T11:01:07.620Z,21.89
2022-12-11T11:03:51.852Z,21.85
2022-12-11T11:06:20.164Z,21.84
2022-12-11T11:08:49.221Z,21.83
2022-12-11T11:11:23.679Z,21.79
2022-12-11T11:13:50.929Z,21.78
2022-12-11T11:16:21.666Z,21.78
2022-12-11T11:18:54.896Z,21.92
2022-12-11T11:21:24.037Z,22.15
2022-12-11T11:23:53.673Z,22.27
2022-12-11T11:26:22.709Z,22.34
2022-12-11T11:28:52.260Z,22.37
2022-12-11T11:31:22.966Z,22.32
2022-12-11T11:33:56.413Z,22.31
2022-12-11T11:36:25.117Z,22.35
2022-12-11T11:39:04.410Z,22.33
2022-12-11T11:41:37.713Z,22.36
2022-12-11T11:44:07.474Z,22.18
2022-12-11T11:46:43.262Z,21.88
2022-12-11T11:49:18.721Z,21.52
2022-12-11T11:51:50.629Z,21.25
2022-12-11T11:54:28.406Z,20.97
2022-12-11T11:56:56.868Z,20.66
2022-12-11T11:59:27.735Z,20.46
2022-12-11T12:02:00.537Z,20.28
2022-12-11T12:04:34.521Z,20.25
2022-12-11T12:07:14.394Z,20.20
2022-12-11T12:09:51.818Z,20.17
2022-12-11T12:12:33.768Z,20.34
2022-12-11T12:15:25.416Z,20.51
2022-12-11T12:17:56.536Z,20.51
2022-12-11T12:20:32.302Z,20.38
2022-12-11T12:23:16.033Z,20.38
2022-12-11T12:25:49.219Z,20.42
2022-12-11T12:28:26.505Z,20.22
2022-12-11T12:31:07.299Z,19.96
2022-12-11T12:33:49.977Z,19.76
2022-12-11T12:36:22.568Z,19.50
2022-12-11T12:38:55.054Z,19.38
2022-12-11T12:41:27.381Z,19.28
2022-12-11T12:44:09.501Z,19.17
2022-12-11T12:47:00.469Z,19.02
2022-12-11T12:49:40.109Z,18.80
2022-12-11T12:52:13.829Z,18.72
2022-12-11T12:55:04.132Z,18.62
2022-12-11T12:57:32.130Z,18.51
2022-12-11T12:59:59.387Z,18.41
2022-12-11T13:02:26.744Z,18.30
2022-12-11T13:05:00.884Z,18.17
2022-12-11T13:07:31.302Z,18.26
2022-12-11T13:10:01.038Z,18.35
2022-12-11T13:12:46.655Z,18.51
2022-12-11T13:15:43.747Z,18.58
2022-12-11T13:18:31.162Z,18.61
2022-12-11T13:20:59.796Z,18.72
2022-12-11T13:23:29.262Z,18.84
2022-12-11T13:25:58.457Z,18.86
2022-12-11T13:28:31.846Z,18.80
2022-12-11T13:31:18.402Z,18.62
2022-12-11T13:33:48.684Z,18.41
2022-12-11T13:36:27.971Z,18.19
2022-12-11T13:38:57.992Z,18.02
2022-12-11T13:41:25.186Z,17.94
2022-12-11T13:43:53.804Z,17.94
2022-12-11T13:46:25.870Z,18.05
2022-12-11T13:48:57.190Z,18.11
2022-12-11T13:51:26.225Z,18.10
2022-12-11T13:54:04.271Z,18.02
2022-12-11T13:56:31.274Z,17.98
2022-12-11T13:58:58.231Z,17.91
2022-12-11T14:01:27.762Z,17.85
2022-12-11T14:03:56.524Z,17.78
2022-12-11T14:06:26.276Z,17.74
2022-12-11T14:08:56.362Z,17.69
2022-12-11T14:11:27.951Z,17.64
2022-12-11T14:13:57.398Z,17.58
2022-12-11T14:16:29.590Z,17.51
2022-12-11T14:19:02.668Z,17.31
2022-12-11T14:21:31.563Z,16.98
2022-12-11T14:23:59.963Z,16.66
2022-12-11T14:26:28.352Z,16.39
2022-12-11T14:28:55.618Z,16.15
2022-12-11T14:31:27.842Z,15.87
2022-12-11T14:34:01.040Z,15.68
2022-12-11T14:36:30.207Z,15.47
2022-12-11T14:39:02.365Z,15.22
2022-12-11T14:41:36.619Z,14.99
2022-12-11T14:44:07.989Z,14.70
2022-12-11T14:46:40.105Z,14.44
2022-12-11T14:49:16.683Z,14.19
2022-12-11T14:51:46.074Z,14.05
2022-12-11T14:54:22.059Z,13.88
2022-12-11T14:56:49.256Z,13.69
2022-12-11T14:59:28.360Z,13.53
2022-12-11T15:02:00.608Z,13.42
2022-12-11T15:04:32.208Z,13.35
2022-12-11T15:07:00.746Z,13.35
2022-12-11T15:09:30.427Z,13.34
2022-12-11T15:12:12.597Z,13.36
2022-12-11T15:14:47.250Z,13.35
2022-12-11T15:17:15.265Z,13.30
2022-12-11T15:19:48.466Z,13.20
2022-12-11T15:22:18.058Z,13.17
2022-12-11T15:24:48.846Z,13.13
2022-12-11T15:27:25.559Z,13.18
2022-12-11T15:29:52.962Z,13.24
2022-12-11T15:32:21.795Z,13.23
2022-12-11T15:34:52.095Z,13.16
2022-12-11T15:37:25.526Z,13.01
2022-12-11T15:39:53.634Z,12.82
2022-12-11T15:42:26.600Z,12.61
2022-12-11T15:44:55.534Z,12.38
2022-12-11T15:47:25.633Z,12.17
2022-12-11T15:49:55.509Z,11.87
2022-12-11T15:52:25.501Z,11.79
2022-12-11T15:54:52.454Z,11.70
2022-12-11T15:57:21.554Z,11.53
2022-12-11T15:59:51.254Z,11.42
2022-12-11T16:02:18.627Z,11.42
2022-12-11T16:04:45.594Z,11.53
2022-12-11T16:07:17.335Z,11.51
2022-12-11T16:09:46.858Z,11.42
2022-12-11T16:12:14.392Z,11.36
2022-12-11T16:14:41.550Z,11.24
2022-12-11T16:17:09.762Z,11.11
2022-12-11T16:19:37.260Z,10.93
2022-12-11T16:22:04.902Z,10.80
2022-12-11T16:24:32.525Z,10.55
2022-12-11T16:27:00.998Z,10.41
2022-12-11T16:29:28.523Z,10.38
2022-12-11T16:31:55.550Z,10.37
2022-12-11T16:34:25.542Z,10.38
2022-12-11T16:36:52.985Z,10.33
2022-12-11T16:39:20.259Z,10.24
2022-12-11T16:41:47.293Z,10.15
2022-12-11T16:44:19.680Z,10.14
2022-12-11T16:46:46.761Z,10.09
2022-12-11T16:49:13.981Z,9.96
2022-12-11T16:51:41.346Z,9.88
2022-12-11T16:54:08.489Z,9.80
2022-12-11T16:56:36.114Z,9.80
2022-12-11T16:59:03.560Z,9.85
2022-12-11T17:01:32.089Z,9.86
2022-12-11T17:03:59.430Z,9.85
2022-12-11T17:06:26.621Z,9.85
2022-12-11T17:08:53.661Z,9.80
2022-12-11T17:11:22.326Z,9.63
2022-12-11T17:13:54.102Z,9.56
2022-12-11T17:16:22.369Z,9.54
2022-12-11T17:18:50.765Z,9.55
2022-12-11T17:21:19.045Z,9.49
2022-12-11T17:23:46.062Z,9.56
2022-12-11T17:26:13.464Z,9.52
2022-12-11T17:28:40.546Z,9.52
2022-12-11T17:31:09.365Z,9.49
2022-12-11T17:33:38.071Z,9.46
2022-12-11T17:36:08.030Z,9.48
2022-12-11T17:38:35.849Z,9.48
2022-12-11T17:41:06.272Z,9.45
2022-12-11T17:43:33.573Z,9.45
2022-12-11T17:46:01.014Z,9.51
2022-12-11T17:48:28.063Z,9.58
2022-12-11T17:50:58.385Z,9.55
2022-12-11T17:53:26.740Z,9.59
2022-12-11T17:55:53.900Z,9.61
2022-12-11T17:58:22.798Z,9.53
2022-12-11T18:00:53.221Z,9.47
2022-12-11T18:03:20.322Z,9.34
2022-12-11T18:05:50.326Z,9.31
2022-12-11T18:08:19.269Z,9.37
2022-12-11T18:10:48.013Z,9.38
2022-12-11T18:13:15.281Z,9.35
2022-12-11T18:15:42.258Z,9.36
2022-12-11T18:18:09.345Z,9.32
2022-12-11T18:20:37.565Z,9.28
2022-12-11T18:23:05.090Z,9.24
2022-12-11T18:25:32.526Z,9.21
2022-12-11T18:28:01.204Z,9.23
2022-12-11T18:30:28.929Z,9.22
2022-12-11T18:32:55.948Z,9.22
2022-12-11T18:35:23.164Z,9.18
2022-12-11T18:37:50.112Z,9.07
2022-12-11T18:40:17.291Z,8.97
2022-12-11T18:42:44.396Z,8.89
2022-12-11T18:45:13.051Z,8.86
2022-12-11T18:47:40.681Z,8.78
2022-12-11T18:50:08.477Z,8.77
2022-12-11T18:52:37.530Z,8.70
2022-12-11T18:55:05.220Z,8.67
2022-12-11T18:57:32.496Z,8.71
2022-12-11T19:00:07.079Z,8.71
2022-12-11T19:02:35.894Z,8.72
2022-12-11T19:05:03.919Z,8.67
2022-12-11T19:07:31.421Z,8.63
2022-12-11T19:09:58.530Z,8.53
2022-12-11T19:12:25.701Z,8.42
2022-12-11T19:14:52.719Z,8.42
2022-12-11T19:17:19.684Z,8.37
2022-12-11T19:19:48.130Z,8.37
2022-12-11T19:22:15.111Z,8.34
2022-12-11T19:24:42.101Z,8.32
2022-12-11T19:27:13.432Z,8.35
2022-12-11T19:29:41.335Z,8.40
2022-12-11T19:32:08.562Z,8.46
2022-12-11T19:34:36.069Z,8.45
2022-12-11T19:37:05.855Z,8.45
2022-12-11T19:39:32.837Z,8.50
2022-12-11T19:41:59.929Z,8.47
2022-12-11T19:44:27.258Z,8.48
2022-12-11T19:46:54.397Z,8.48
2022-12-11T19:49:21.597Z,8.52
2022-12-11T19:51:48.849Z,8.52
2022-12-11T19:54:18.048Z,8.52
2022-12-11T19:56:45.344Z,8.53
2022-12-11T19:59:15.406Z,8.57
2022-12-11T20:01:43.101Z,8.65
2022-12-11T20:04:12.493Z,8.68
2022-12-11T20:06:42.932Z,8.68
2022-12-11T20:09:12.022Z,8.63
2022-12-11T20:11:42.611Z,8.60
2022-12-11T20:14:15.446Z,8.49
2022-12-11T20:19:29.964Z,8.20
2022-12-11T20:21:57.120Z,8.13
2022-12-11T20:24:24.100Z,8.18
2022-12-11T20:26:54.644Z,8.17
2022-12-11T20:29:21.601Z,8.18
2022-12-11T20:31:50.327Z,8.15
2022-12-11T20:34:17.524Z,8.11
2022-12-11T20:36:44.622Z,8.06
2022-12-11T20:39:11.588Z,8.02
2022-12-11T20:41:38.624Z,7.88
2022-12-11T20:44:06.990Z,7.78
2022-12-11T20:46:34.301Z,7.73
2022-12-11T20:49:01.276Z,7.76
2022-12-11T20:51:29.129Z,7.72
2022-12-11T20:53:59.715Z,7.65
2022-12-11T20:56:28.561Z,7.54
2022-12-11T20:58:56.629Z,7.51
2022-12-11T21:01:28.626Z,7.47
2022-12-11T21:03:56.386Z,7.47
2022-12-11T21:06:26.155Z,7.43
2022-12-11T21:08:53.329Z,7.35
2022-12-11T21:11:20.699Z,7.31
2022-12-11T21:13:50.484Z,7.29
2022-12-11T21:16:18.565Z,7.25
2022-12-11T21:18:47.089Z,7.24
2022-12-11T21:21:14.561Z,7.31
2022-12-11T21:23:41.742Z,7.36
2022-12-11T21:26:09.077Z,7.37
2022-12-11T21:28:36.429Z,7.33
2022-12-11T21:31:06.022Z,7.31
2022-12-11T21:33:33.461Z,7.28
2022-12-11T21:36:03.029Z,7.21
2022-12-11T21:38:30.498Z,7.23
2022-12-11T21:40:57.626Z,7.25
2022-12-11T21:43:25.010Z,7.26
2022-12-11T21:46:01.319Z,7.28
2022-12-11T21:48:29.515Z,7.24
2022-12-11T21:51:05.397Z,7.19
2022-12-11T21:53:32.501Z,7.13
2022-12-11T21:55:59.509Z,7.10
2022-12-11T21:58:26.466Z,7.09
2022-12-11T22:00:53.430Z,7.08
2022-12-11T22:03:20.433Z,7.06
2022-12-11T22:05:47.499Z,7.01
2022-12-11T22:08:16.022Z,7.01
2022-12-11T22:10:43.247Z,7.02
2022-12-11T22:13:10.197Z,7.00
2022-12-11T22:15:37.306Z,6.99
2022-12-11T22:18:04.677Z,6.98
2022-12-11T22:20:31.672Z,6.91
2022-12-11T22:22:58.683Z,6.86
2022-12-11T22:25:27.078Z,6.87
2022-12-11T22:27:54.046Z,6.85
2022-12-11T22:30:21.079Z,6.83
2022-12-11T22:32:48.725Z,6.83
2022-12-11T22:35:16.057Z,6.86
2022-12-11T22:37:43.075Z,6.81
2022-12-11T22:40:10.544Z,6.84
2022-12-11T22:42:38.962Z,6.86
2022-12-11T22:45:07.001Z,6.85
2022-12-11T22:47:33.941Z,6.84
2022-12-11T22:50:00.900Z,6.87
2022-12-11T22:52:27.993Z,6.85
2022-12-11T22:54:54.970Z,6.83
2022-12-11T22:57:21.885Z,6.81
2022-12-11T22:59:50.646Z,6.77
2022-12-11T23:02:17.729Z,6.74
2022-12-11T23:04:44.996Z,6.74
2022-12-11T23:07:11.946Z,6.72
2022-12-11T23:09:39.035Z,6.69
2022-12-11T23:12:06.809Z,6.63
2022-12-11T23:14:33.909Z,6.60
2022-12-11T23:17:02.319Z,6.59
2022-12-11T23:19:29.324Z,6.60
2022-12-11T23:21:56.319Z,6.64
2022-12-11T23:24:23.353Z,6.67
2022-12-11T23:26:50.640Z,6.63
2022-12-11T23:29:17.570Z,6.63
2022-12-11T23:31:44.617Z,6.62
2022-12-11T23:34:12.970Z,6.61
2022-12-11T23:36:39.921Z,6.64
2022-12-11T23:39:07.542Z,6.58
2022-12-11T23:41:34.545Z,6.55
2022-12-11T23:44:01.764Z,6.47
2022-12-11T23:46:28.797Z,6.49
2022-12-11T23:48:57.126Z,6.45
2022-12-11T23:51:25.917Z,6.43
2022-12-11T23:53:52.968Z,6.39
2022-12-11T23:56:22.635Z,6.36
2022-12-11T23:58:50.078Z,6.33
